sensor_id;sensor_type;location;lat;lon;timestamp;temperature;humidity
25554;DHT22;13446;50.926;5.332;2023-07-13T00:00:28;18.80;99.90
25554;DHT22;13446;50.926;5.332;2023-07-13T00:02:54;18.70;99.90
25554;DHT22;13446;50.926;5.332;2023-07-13T00:05:20;18.80;99.90
25554;DHT22;13446;50.926;5.332;2023-07-13T00:07:46;18.90;99.90
25554;DHT22;13446;50.926;5.332;2023-07-13T00:10:12;18.80;99.90
25554;DHT22;13446;50.926;5.332;2023-07-13T00:12:38;18.60;99.90
25554;DHT22;13446;50.926;5.332;2023-07-13T00:15:10;18.70;99.90
25554;DHT22;13446;50.926;5.332;2023-07-13T00:17:37;18.70;99.90
25554;DHT22;13446;50.926;5.332;2023-07-13T00:20:04;18.60;99.90
25554;DHT22;13446;50.926;5.332;2023-07-13T00:22:30;18.50;99.90
25554;DHT22;13446;50.926;5.332;2023-07-13T00:24:55;18.50;99.90
25554;DHT22;13446;50.926;5.332;2023-07-13T00:27:21;18.40;99.90
25554;DHT22;13446;50.926;5.332;2023-07-13T00:29:47;18.40;99.90
25554;DHT22;13446;50.926;5.332;2023-07-13T00:32:12;18.50;99.90
25554;DHT22;13446;50.926;5.332;2023-07-13T00:34:38;18.50;99.90
25554;DHT22;13446;50.926;5.332;2023-07-13T00:37:04;18.40;99.90
25554;DHT22;13446;50.926;5.332;2023-07-13T00:39:32;18.30;99.90
25554;DHT22;13446;50.926;5.332;2023-07-13T00:41:57;18.20;99.90
25554;DHT22;13446;50.926;5.332;2023-07-13T00:44:23;18.20;99.90
25554;DHT22;13446;50.926;5.332;2023-07-13T00:46:49;18.30;99.90
25554;DHT22;13446;50.926;5.332;2023-07-13T00:49:15;18.20;99.90
25554;DHT22;13446;50.926;5.332;2023-07-13T00:51:45;18.20;99.90
25554;DHT22;13446;50.926;5.332;2023-07-13T00:54:13;18.30;99.90
25554;DHT22;13446;50.926;5.332;2023-07-13T00:56:40;18.30;99.90
25554;DHT22;13446;50.926;5.332;2023-07-13T00:59:06;18.30;99.90
25554;DHT22;13446;50.926;5.332;2023-07-13T01:01:33;18.40;99.90
25554;DHT22;13446;50.926;5.332;2023-07-13T01:03:59;18.20;99.90
25554;DHT22;13446;50.926;5.332;2023-07-13T01:06:24;18.20;99.90
25554;DHT22;13446;50.926;5.332;2023-07-13T01:08:50;18.20;99.90
25554;DHT22;13446;50.926;5.332;2023-07-13T01:11:20;18.20;99.90
25554;DHT22;13446;50.926;5.332;2023-07-13T01:13:46;18.10;99.90
25554;DHT22;13446;50.926;5.332;2023-07-13T01:16:18;18.10;99.90
25554;DHT22;13446;50.926;5.332;2023-07-13T01:18:45;18.10;99.90
25554;DHT22;13446;50.926;5.332;2023-07-13T01:21:10;18.00;99.90
25554;DHT22;13446;50.926;5.332;2023-07-13T01:23:36;18.00;99.90
25554;DHT22;13446;50.926;5.332;2023-07-13T01:26:01;18.00;99.90
25554;DHT22;13446;50.926;5.332;2023-07-13T01:28:27;18.00;99.90
25554;DHT22;13446;50.926;5.332;2023-07-13T01:30:54;17.90;99.90
25554;DHT22;13446;50.926;5.332;2023-07-13T01:33:20;17.80;99.90
25554;DHT22;13446;50.926;5.332;2023-07-13T01:35:46;17.70;99.90
25554;DHT22;13446;50.926;5.332;2023-07-13T01:38:13;17.80;99.90
25554;DHT22;13446;50.926;5.332;2023-07-13T01:40:40;17.80;99.90
25554;DHT22;13446;50.926;5.332;2023-07-13T01:43:05;17.80;99.90
25554;DHT22;13446;50.926;5.332;2023-07-13T01:45:31;17.90;99.90
25554;DHT22;13446;50.926;5.332;2023-07-13T01:47:57;17.90;99.90
25554;DHT22;13446;50.926;5.332;2023-07-13T01:50:23;17.80;99.90
25554;DHT22;13446;50.926;5.332;2023-07-13T01:52:49;17.80;99.90
25554;DHT22;13446;50.926;5.332;2023-07-13T01:55:15;17.80;99.90
25554;DHT22;13446;50.926;5.332;2023-07-13T01:57:40;17.70;99.90
25554;DHT22;13446;50.926;5.332;2023-07-13T02:00:06;17.90;99.90
25554;DHT22;13446;50.926;5.332;2023-07-13T02:02:32;17.80;99.90
25554;DHT22;13446;50.926;5.332;2023-07-13T02:04:58;17.80;99.90
25554;DHT22;13446;50.926;5.332;2023-07-13T02:07:23;17.80;99.90
25554;DHT22;13446;50.926;5.332;2023-07-13T02:09:49;17.80;99.90
25554;DHT22;13446;50.926;5.332;2023-07-13T02:12:15;17.80;99.90
25554;DHT22;13446;50.926;5.332;2023-07-13T02:14:40;17.70;99.90
25554;DHT22;13446;50.926;5.332;2023-07-13T02:17:06;17.70;99.90
25554;DHT22;13446;50.926;5.332;2023-07-13T02:19:31;17.60;99.90
25554;DHT22;13446;50.926;5.332;2023-07-13T02:21:57;17.60;99.90
25554;DHT22;13446;50.926;5.332;2023-07-13T02:24:23;17.60;99.90
25554;DHT22;13446;50.926;5.332;2023-07-13T02:26:48;17.60;99.90
25554;DHT22;13446;50.926;5.332;2023-07-13T02:29:14;17.60;99.90
25554;DHT22;13446;50.926;5.332;2023-07-13T02:31:39;17.60;99.90
25554;DHT22;13446;50.926;5.332;2023-07-13T02:34:06;17.60;99.90
25554;DHT22;13446;50.926;5.332;2023-07-13T02:36:32;17.40;99.90
25554;DHT22;13446;50.926;5.332;2023-07-13T02:39:00;17.40;99.90
25554;DHT22;13446;50.926;5.332;2023-07-13T02:41:26;17.50;99.90
25554;DHT22;13446;50.926;5.332;2023-07-13T02:43:52;17.50;99.90
25554;DHT22;13446;50.926;5.332;2023-07-13T02:46:17;17.40;99.90
25554;DHT22;13446;50.926;5.332;2023-07-13T02:48:45;17.40;99.90
25554;DHT22;13446;50.926;5.332;2023-07-13T02:51:10;17.40;99.90
25554;DHT22;13446;50.926;5.332;2023-07-13T02:53:36;17.30;99.90
25554;DHT22;13446;50.926;5.332;2023-07-13T02:56:02;17.40;99.90
25554;DHT22;13446;50.926;5.332;2023-07-13T02:58:28;17.30;99.90
25554;DHT22;13446;50.926;5.332;2023-07-13T03:00:53;17.30;99.90
25554;DHT22;13446;50.926;5.332;2023-07-13T03:03:19;17.30;99.90
25554;DHT22;13446;50.926;5.332;2023-07-13T03:05:44;17.40;99.90
25554;DHT22;13446;50.926;5.332;2023-07-13T03:08:15;17.40;99.90
25554;DHT22;13446;50.926;5.332;2023-07-13T03:10:41;17.30;99.90
25554;DHT22;13446;50.926;5.332;2023-07-13T03:13:06;17.20;99.90
25554;DHT22;13446;50.926;5.332;2023-07-13T03:15:32;17.30;99.90
25554;DHT22;13446;50.926;5.332;2023-07-13T03:17:57;17.30;99.90
25554;DHT22;13446;50.926;5.332;2023-07-13T03:20:23;17.30;99.90
25554;DHT22;13446;50.926;5.332;2023-07-13T03:22:49;17.30;99.90
25554;DHT22;13446;50.926;5.332;2023-07-13T03:25:14;17.30;99.90
25554;DHT22;13446;50.926;5.332;2023-07-13T03:27:40;17.20;99.90
25554;DHT22;13446;50.926;5.332;2023-07-13T03:30:07;17.20;99.90
25554;DHT22;13446;50.926;5.332;2023-07-13T03:32:32;17.20;99.90
25554;DHT22;13446;50.926;5.332;2023-07-13T03:34:58;17.20;99.90
25554;DHT22;13446;50.926;5.332;2023-07-13T03:37:24;17.30;99.90
25554;DHT22;13446;50.926;5.332;2023-07-13T03:39:50;17.20;99.90
25554;DHT22;13446;50.926;5.332;2023-07-13T03:42:15;17.20;99.90
25554;DHT22;13446;50.926;5.332;2023-07-13T03:44:41;17.30;99.90
25554;DHT22;13446;50.926;5.332;2023-07-13T03:47:07;17.30;99.90
25554;DHT22;13446;50.926;5.332;2023-07-13T03:49:34;17.30;99.90
25554;DHT22;13446;50.926;5.332;2023-07-13T03:51:59;17.30;99.90
25554;DHT22;13446;50.926;5.332;2023-07-13T03:54:25;17.40;99.90
25554;DHT22;13446;50.926;5.332;2023-07-13T03:56:51;17.30;99.90
25554;DHT22;13446;50.926;5.332;2023-07-13T03:59:16;17.30;99.90
25554;DHT22;13446;50.926;5.332;2023-07-13T04:01:43;17.40;99.90
25554;DHT22;13446;50.926;5.332;2023-07-13T04:04:08;17.60;99.90
25554;DHT22;13446;50.926;5.332;2023-07-13T04:06:34;17.70;99.90
25554;DHT22;13446;50.926;5.332;2023-07-13T04:09:00;17.70;99.90
25554;DHT22;13446;50.926;5.332;2023-07-13T04:11:27;17.60;99.90
25554;DHT22;13446;50.926;5.332;2023-07-13T04:13:53;17.80;99.90
25554;DHT22;13446;50.926;5.332;2023-07-13T04:16:19;17.80;99.90
25554;DHT22;13446;50.926;5.332;2023-07-13T04:18:45;17.70;99.90
25554;DHT22;13446;50.926;5.332;2023-07-13T04:21:11;17.80;99.90
25554;DHT22;13446;50.926;5.332;2023-07-13T04:23:37;17.80;99.90
25554;DHT22;13446;50.926;5.332;2023-07-13T04:26:02;17.80;99.90
25554;DHT22;13446;50.926;5.332;2023-07-13T04:28:28;17.80;99.90
25554;DHT22;13446;50.926;5.332;2023-07-13T04:30:54;17.90;99.90
25554;DHT22;13446;50.926;5.332;2023-07-13T04:33:20;18.00;99.90
25554;DHT22;13446;50.926;5.332;2023-07-13T04:35:48;18.00;99.90
25554;DHT22;13446;50.926;5.332;2023-07-13T04:38:14;18.00;99.90
25554;DHT22;13446;50.926;5.332;2023-07-13T04:40:47;18.00;99.90
25554;DHT22;13446;50.926;5.332;2023-07-13T04:43:12;18.20;99.90
25554;DHT22;13446;50.926;5.332;2023-07-13T04:45:38;18.20;99.90
25554;DHT22;13446;50.926;5.332;2023-07-13T04:48:03;18.30;99.90
25554;DHT22;13446;50.926;5.332;2023-07-13T04:50:29;18.30;99.90
25554;DHT22;13446;50.926;5.332;2023-07-13T04:52:54;18.30;99.90
25554;DHT22;13446;50.926;5.332;2023-07-13T04:55:20;18.30;99.90
25554;DHT22;13446;50.926;5.332;2023-07-13T04:57:46;18.30;99.90
25554;DHT22;13446;50.926;5.332;2023-07-13T05:00:12;18.30;99.90
25554;DHT22;13446;50.926;5.332;2023-07-13T05:02:46;18.40;99.90
25554;DHT22;13446;50.926;5.332;2023-07-13T05:05:12;18.40;99.90
25554;DHT22;13446;50.926;5.332;2023-07-13T05:07:38;18.40;99.90
25554;DHT22;13446;50.926;5.332;2023-07-13T05:10:03;18.40;99.90
25554;DHT22;13446;50.926;5.332;2023-07-13T05:12:29;18.30;99.90
25554;DHT22;13446;50.926;5.332;2023-07-13T05:14:55;18.30;99.90
25554;DHT22;13446;50.926;5.332;2023-07-13T05:17:21;18.00;99.90
25554;DHT22;13446;50.926;5.332;2023-07-13T05:19:48;18.10;99.90
25554;DHT22;13446;50.926;5.332;2023-07-13T05:22:13;18.20;99.90
25554;DHT22;13446;50.926;5.332;2023-07-13T05:24:39;18.30;99.90
25554;DHT22;13446;50.926;5.332;2023-07-13T05:27:04;18.40;99.90
25554;DHT22;13446;50.926;5.332;2023-07-13T05:29:30;18.40;99.90
25554;DHT22;13446;50.926;5.332;2023-07-13T05:31:56;18.40;99.90
25554;DHT22;13446;50.926;5.332;2023-07-13T05:34:21;18.50;99.90
25554;DHT22;13446;50.926;5.332;2023-07-13T05:36:48;18.70;99.90
25554;DHT22;13446;50.926;5.332;2023-07-13T05:39:14;18.70;99.90
25554;DHT22;13446;50.926;5.332;2023-07-13T05:41:40;18.80;99.90
25554;DHT22;13446;50.926;5.332;2023-07-13T05:44:06;18.90;99.90
25554;DHT22;13446;50.926;5.332;2023-07-13T05:46:31;19.00;99.90
25554;DHT22;13446;50.926;5.332;2023-07-13T05:48:57;19.10;99.90
25554;DHT22;13446;50.926;5.332;2023-07-13T05:51:22;19.20;99.90
25554;DHT22;13446;50.926;5.332;2023-07-13T05:53:48;19.10;99.90
25554;DHT22;13446;50.926;5.332;2023-07-13T05:56:13;19.10;99.90
25554;DHT22;13446;50.926;5.332;2023-07-13T05:58:39;19.10;99.90
25554;DHT22;13446;50.926;5.332;2023-07-13T06:01:05;19.10;99.90
25554;DHT22;13446;50.926;5.332;2023-07-13T06:03:31;19.10;99.90
25554;DHT22;13446;50.926;5.332;2023-07-13T06:05:57;19.10;99.90
25554;DHT22;13446;50.926;5.332;2023-07-13T06:08:23;19.20;99.90
25554;DHT22;13446;50.926;5.332;2023-07-13T06:10:48;19.30;99.90
25554;DHT22;13446;50.926;5.332;2023-07-13T06:13:14;19.40;99.90
25554;DHT22;13446;50.926;5.332;2023-07-13T06:15:39;19.50;99.90
25554;DHT22;13446;50.926;5.332;2023-07-13T06:18:05;19.40;99.90
25554;DHT22;13446;50.926;5.332;2023-07-13T06:20:33;19.40;99.90
25554;DHT22;13446;50.926;5.332;2023-07-13T06:23:00;19.40;99.90
25554;DHT22;13446;50.926;5.332;2023-07-13T06:25:26;19.40;99.90
25554;DHT22;13446;50.926;5.332;2023-07-13T06:27:52;19.50;99.90
25554;DHT22;13446;50.926;5.332;2023-07-13T06:30:17;19.60;99.90
25554;DHT22;13446;50.926;5.332;2023-07-13T06:32:43;19.80;99.90
25554;DHT22;13446;50.926;5.332;2023-07-13T06:35:08;20.00;99.90
25554;DHT22;13446;50.926;5.332;2023-07-13T06:37:37;20.20;99.90
25554;DHT22;13446;50.926;5.332;2023-07-13T06:40:03;20.20;99.90
25554;DHT22;13446;50.926;5.332;2023-07-13T06:42:29;20.30;99.90
25554;DHT22;13446;50.926;5.332;2023-07-13T06:44:54;20.50;99.90
25554;DHT22;13446;50.926;5.332;2023-07-13T06:47:20;20.50;99.90
25554;DHT22;13446;50.926;5.332;2023-07-13T06:49:45;20.60;99.90
25554;DHT22;13446;50.926;5.332;2023-07-13T06:52:11;20.50;99.90
25554;DHT22;13446;50.926;5.332;2023-07-13T06:54:36;20.50;99.90
25554;DHT22;13446;50.926;5.332;2023-07-13T06:57:02;20.60;99.90
25554;DHT22;13446;50.926;5.332;2023-07-13T06:59:28;20.60;99.90
25554;DHT22;13446;50.926;5.332;2023-07-13T07:01:53;20.70;99.90
25554;DHT22;13446;50.926;5.332;2023-07-13T07:04:19;20.60;99.90
25554;DHT22;13446;50.926;5.332;2023-07-13T07:06:45;20.80;99.90
25554;DHT22;13446;50.926;5.332;2023-07-13T07:09:12;21.00;99.90
25554;DHT22;13446;50.926;5.332;2023-07-13T07:11:39;21.20;99.90
25554;DHT22;13446;50.926;5.332;2023-07-13T07:14:04;21.40;99.90
25554;DHT22;13446;50.926;5.332;2023-07-13T07:16:30;21.50;99.90
25554;DHT22;13446;50.926;5.332;2023-07-13T07:18:55;21.50;99.90
25554;DHT22;13446;50.926;5.332;2023-07-13T07:21:21;21.50;99.90
25554;DHT22;13446;50.926;5.332;2023-07-13T07:23:48;21.70;99.90
25554;DHT22;13446;50.926;5.332;2023-07-13T07:26:14;21.80;99.90
25554;DHT22;13446;50.926;5.332;2023-07-13T07:28:39;21.70;99.90
25554;DHT22;13446;50.926;5.332;2023-07-13T07:31:05;21.80;99.90
25554;DHT22;13446;50.926;5.332;2023-07-13T07:33:32;21.80;99.90
25554;DHT22;13446;50.926;5.332;2023-07-13T07:35:57;21.90;99.90
25554;DHT22;13446;50.926;5.332;2023-07-13T07:38:23;22.00;99.90
25554;DHT22;13446;50.926;5.332;2023-07-13T07:40:49;22.00;99.90
25554;DHT22;13446;50.926;5.332;2023-07-13T07:43:14;22.10;99.90
25554;DHT22;13446;50.926;5.332;2023-07-13T07:45:40;22.10;99.90
25554;DHT22;13446;50.926;5.332;2023-07-13T07:48:06;22.10;99.90
25554;DHT22;13446;50.926;5.332;2023-07-13T07:50:32;22.20;99.90
25554;DHT22;13446;50.926;5.332;2023-07-13T07:52:57;22.40;99.90
25554;DHT22;13446;50.926;5.332;2023-07-13T07:55:23;22.60;99.90
25554;DHT22;13446;50.926;5.332;2023-07-13T07:57:51;22.70;99.90
25554;DHT22;13446;50.926;5.332;2023-07-13T08:00:16;22.60;99.90
25554;DHT22;13446;50.926;5.332;2023-07-13T08:02:43;22.80;99.90
25554;DHT22;13446;50.926;5.332;2023-07-13T08:05:08;22.80;99.90
25554;DHT22;13446;50.926;5.332;2023-07-13T08:07:35;23.00;99.90
25554;DHT22;13446;50.926;5.332;2023-07-13T08:10:00;23.30;99.90
25554;DHT22;13446;50.926;5.332;2023-07-13T08:12:26;23.40;99.90
25554;DHT22;13446;50.926;5.332;2023-07-13T08:14:52;23.40;99.90
25554;DHT22;13446;50.926;5.332;2023-07-13T08:17:23;23.70;99.90
25554;DHT22;13446;50.926;5.332;2023-07-13T08:19:49;23.90;99.90
25554;DHT22;13446;50.926;5.332;2023-07-13T08:22:14;24.00;99.90
25554;DHT22;13446;50.926;5.332;2023-07-13T08:24:40;24.00;99.90
25554;DHT22;13446;50.926;5.332;2023-07-13T08:27:07;24.00;99.90
25554;DHT22;13446;50.926;5.332;2023-07-13T08:29:33;24.10;99.90
25554;DHT22;13446;50.926;5.332;2023-07-13T08:31:59;24.00;99.90
25554;DHT22;13446;50.926;5.332;2023-07-13T08:34:24;23.90;99.90
25554;DHT22;13446;50.926;5.332;2023-07-13T08:36:50;23.90;99.90
25554;DHT22;13446;50.926;5.332;2023-07-13T08:39:16;23.80;99.90
25554;DHT22;13446;50.926;5.332;2023-07-13T08:41:44;23.90;99.90
25554;DHT22;13446;50.926;5.332;2023-07-13T08:46:59;24.20;99.90
25554;DHT22;13446;50.926;5.332;2023-07-13T08:49:25;24.20;99.90
25554;DHT22;13446;50.926;5.332;2023-07-13T08:51:57;24.60;99.90
25554;DHT22;13446;50.926;5.332;2023-07-13T08:56:52;24.80;99.90
25554;DHT22;13446;50.926;5.332;2023-07-13T08:59:19;24.70;99.90
25554;DHT22;13446;50.926;5.332;2023-07-13T09:04:13;25.20;99.90
25554;DHT22;13446;50.926;5.332;2023-07-13T09:06:57;25.60;99.90
25554;DHT22;13446;50.926;5.332;2023-07-13T09:12:23;25.50;99.90
25554;DHT22;13446;50.926;5.332;2023-07-13T09:14:53;25.40;99.90
25554;DHT22;13446;50.926;5.332;2023-07-13T09:19:50;25.70;99.90
25554;DHT22;13446;50.926;5.332;2023-07-13T09:22:19;26.50;99.90
25554;DHT22;13446;50.926;5.332;2023-07-13T09:27:27;29.40;93.40
25554;DHT22;13446;50.926;5.332;2023-07-13T09:29:57;30.10;88.40
25554;DHT22;13446;50.926;5.332;2023-07-13T09:32:26;29.90;82.80
25554;DHT22;13446;50.926;5.332;2023-07-13T09:34:53;29.30;82.30
25554;DHT22;13446;50.926;5.332;2023-07-13T09:37:20;28.50;83.50
25554;DHT22;13446;50.926;5.332;2023-07-13T09:39:46;28.50;85.30
25554;DHT22;13446;50.926;5.332;2023-07-13T09:42:15;28.70;87.00
25554;DHT22;13446;50.926;5.332;2023-07-13T09:47:16;28.70;84.00
25554;DHT22;13446;50.926;5.332;2023-07-13T09:49:42;28.50;85.50
25554;DHT22;13446;50.926;5.332;2023-07-13T09:52:14;29.10;83.80
25554;DHT22;13446;50.926;5.332;2023-07-13T09:54:43;28.60;82.60
25554;DHT22;13446;50.926;5.332;2023-07-13T09:57:13;28.00;83.90
25554;DHT22;13446;50.926;5.332;2023-07-13T09:59:40;27.90;85.80
25554;DHT22;13446;50.926;5.332;2023-07-13T10:04:47;29.90;80.20
25554;DHT22;13446;50.926;5.332;2023-07-13T10:07:22;32.00;71.70
25554;DHT22;13446;50.926;5.332;2023-07-13T10:09:51;32.30;62.50
25554;DHT22;13446;50.926;5.332;2023-07-13T10:12:18;32.10;60.30
25554;DHT22;13446;50.926;5.332;2023-07-13T10:14:44;32.20;59.70
25554;DHT22;13446;50.926;5.332;2023-07-13T10:17:10;32.20;60.60
25554;DHT22;13446;50.926;5.332;2023-07-13T10:19:37;32.80;61.20
25554;DHT22;13446;50.926;5.332;2023-07-13T10:24:44;33.30;55.70
25554;DHT22;13446;50.926;5.332;2023-07-13T10:27:12;32.40;57.10
25554;DHT22;13446;50.926;5.332;2023-07-13T10:29:39;32.40;57.30
25554;DHT22;13446;50.926;5.332;2023-07-13T10:32:09;31.60;56.60
25554;DHT22;13446;50.926;5.332;2023-07-13T10:34:35;30.90;59.00
25554;DHT22;13446;50.926;5.332;2023-07-13T10:37:00;30.20;59.40
25554;DHT22;13446;50.926;5.332;2023-07-13T10:39:30;30.00;61.80
25554;DHT22;13446;50.926;5.332;2023-07-13T10:42:00;30.80;61.70
25554;DHT22;13446;50.926;5.332;2023-07-13T10:44:29;31.80;58.30
25554;DHT22;13446;50.926;5.332;2023-07-13T10:46:59;31.20;57.90
25554;DHT22;13446;50.926;5.332;2023-07-13T10:49:26;30.50;58.20
25554;DHT22;13446;50.926;5.332;2023-07-13T10:51:53;29.40;63.10
25554;DHT22;13446;50.926;5.332;2023-07-13T10:54:26;28.80;67.90
25554;DHT22;13446;50.926;5.332;2023-07-13T10:59:36;27.50;74.30
25554;DHT22;13446;50.926;5.332;2023-07-13T11:04:27;29.80;68.70
25554;DHT22;13446;50.926;5.332;2023-07-13T11:06:58;31.70;62.50
25554;DHT22;13446;50.926;5.332;2023-07-13T11:11:55;32.70;57.40
25554;DHT22;13446;50.926;5.332;2023-07-13T11:14:34;33.70;54.40
25554;DHT22;13446;50.926;5.332;2023-07-13T11:17:23;33.80;54.30
25554;DHT22;13446;50.926;5.332;2023-07-13T11:19:46;34.40;50.10
25554;DHT22;13446;50.926;5.332;2023-07-13T11:22:16;33.50;50.60
25554;DHT22;13446;50.926;5.332;2023-07-13T11:24:59;32.30;52.60
25554;DHT22;13446;50.926;5.332;2023-07-13T11:27:45;32.60;52.30
25554;DHT22;13446;50.926;5.332;2023-07-13T11:30:18;32.40;51.60
25554;DHT22;13446;50.926;5.332;2023-07-13T11:32:46;33.00;51.70
25554;DHT22;13446;50.926;5.332;2023-07-13T11:35:24;32.90;52.00
25554;DHT22;13446;50.926;5.332;2023-07-13T11:37:51;32.20;54.10
25554;DHT22;13446;50.926;5.332;2023-07-13T11:40:18;32.60;51.60
25554;DHT22;13446;50.926;5.332;2023-07-13T11:42:43;32.60;51.60
25554;DHT22;13446;50.926;5.332;2023-07-13T11:45:19;32.40;52.50
25554;DHT22;13446;50.926;5.332;2023-07-13T11:47:48;32.00;52.70
25554;DHT22;13446;50.926;5.332;2023-07-13T11:50:21;31.80;53.40
25554;DHT22;13446;50.926;5.332;2023-07-13T11:52:46;31.80;52.70
25554;DHT22;13446;50.926;5.332;2023-07-13T11:55:18;32.10;53.50
25554;DHT22;13446;50.926;5.332;2023-07-13T11:58:00;32.70;51.80
25554;DHT22;13446;50.926;5.332;2023-07-13T12:00:29;32.70;50.20
25554;DHT22;13446;50.926;5.332;2023-07-13T12:02:59;31.90;51.40
25554;DHT22;13446;50.926;5.332;2023-07-13T12:05:25;32.20;50.90
25554;DHT22;13446;50.926;5.332;2023-07-13T12:07:51;32.30;50.10
25554;DHT22;13446;50.926;5.332;2023-07-13T12:10:17;31.80;49.80
25554;DHT22;13446;50.926;5.332;2023-07-13T12:15:18;31.80;51.30
25554;DHT22;13446;50.926;5.332;2023-07-13T12:17:45;32.00;50.80
25554;DHT22;13446;50.926;5.332;2023-07-13T12:20:17;32.20;50.40
25554;DHT22;13446;50.926;5.332;2023-07-13T12:22:45;31.70;51.00
25554;DHT22;13446;50.926;5.332;2023-07-13T12:25:11;31.70;51.50
25554;DHT22;13446;50.926;5.332;2023-07-13T12:27:37;31.00;50.60
25554;DHT22;13446;50.926;5.332;2023-07-13T12:33:01;31.10;53.00
25554;DHT22;13446;50.926;5.332;2023-07-13T12:35:39;31.30;50.90
25554;DHT22;13446;50.926;5.332;2023-07-13T12:38:07;31.30;50.00
25554;DHT22;13446;50.926;5.332;2023-07-13T12:40:34;31.70;50.80
25554;DHT22;13446;50.926;5.332;2023-07-13T12:43:00;31.60;50.40
25554;DHT22;13446;50.926;5.332;2023-07-13T12:45:29;31.20;50.80
25554;DHT22;13446;50.926;5.332;2023-07-13T12:47:57;30.50;51.70
25554;DHT22;13446;50.926;5.332;2023-07-13T12:50:29;29.70;52.10
25554;DHT22;13446;50.926;5.332;2023-07-13T12:53:02;29.60;53.30
25554;DHT22;13446;50.926;5.332;2023-07-13T12:55:40;29.40;53.30
25554;DHT22;13446;50.926;5.332;2023-07-13T12:58:06;29.20;53.30
25554;DHT22;13446;50.926;5.332;2023-07-13T13:00:33;29.10;53.90
25554;DHT22;13446;50.926;5.332;2023-07-13T13:03:04;29.10;53.20
25554;DHT22;13446;50.926;5.332;2023-07-13T13:05:31;28.80;53.30
25554;DHT22;13446;50.926;5.332;2023-07-13T13:07:57;28.50;54.10
25554;DHT22;13446;50.926;5.332;2023-07-13T13:10:23;28.40;54.80
25554;DHT22;13446;50.926;5.332;2023-07-13T13:12:50;28.20;55.10
25554;DHT22;13446;50.926;5.332;2023-07-13T13:15:15;28.10;55.50
25554;DHT22;13446;50.926;5.332;2023-07-13T13:17:42;28.00;54.80
25554;DHT22;13446;50.926;5.332;2023-07-13T13:20:14;27.80;55.70
25554;DHT22;13446;50.926;5.332;2023-07-13T13:22:41;27.80;56.50
25554;DHT22;13446;50.926;5.332;2023-07-13T13:25:09;27.40;56.70
25554;DHT22;13446;50.926;5.332;2023-07-13T13:27:35;27.20;57.70
25554;DHT22;13446;50.926;5.332;2023-07-13T13:30:01;27.00;58.00
25554;DHT22;13446;50.926;5.332;2023-07-13T13:32:27;26.60;62.20
25554;DHT22;13446;50.926;5.332;2023-07-13T13:34:53;25.90;73.70
25554;DHT22;13446;50.926;5.332;2023-07-13T13:37:20;25.40;89.70
25554;DHT22;13446;50.926;5.332;2023-07-13T13:39:46;25.10;96.30
25554;DHT22;13446;50.926;5.332;2023-07-13T13:42:12;25.00;97.90
25554;DHT22;13446;50.926;5.332;2023-07-13T13:44:38;24.90;99.00
25554;DHT22;13446;50.926;5.332;2023-07-13T13:47:29;24.90;97.90
25554;DHT22;13446;50.926;5.332;2023-07-13T13:49:51;24.90;97.90
25554;DHT22;13446;50.926;5.332;2023-07-13T13:52:17;24.90;97.30
25554;DHT22;13446;50.926;5.332;2023-07-13T13:54:43;24.80;97.60
25554;DHT22;13446;50.926;5.332;2023-07-13T13:57:10;24.60;97.80
25554;DHT22;13446;50.926;5.332;2023-07-13T13:59:38;24.60;97.60
25554;DHT22;13446;50.926;5.332;2023-07-13T14:05:06;23.90;99.90
25554;DHT22;13446;50.926;5.332;2023-07-13T14:07:33;24.10;99.90
25554;DHT22;13446;50.926;5.332;2023-07-13T14:09:58;24.10;99.90
25554;DHT22;13446;50.926;5.332;2023-07-13T14:12:25;23.60;99.90
25554;DHT22;13446;50.926;5.332;2023-07-13T14:14:54;23.50;99.90
25554;DHT22;13446;50.926;5.332;2023-07-13T14:17:24;23.70;99.90
25554;DHT22;13446;50.926;5.332;2023-07-13T14:19:53;23.80;99.90
25554;DHT22;13446;50.926;5.332;2023-07-13T14:22:25;24.00;99.90
25554;DHT22;13446;50.926;5.332;2023-07-13T14:24:51;24.20;99.90
25554;DHT22;13446;50.926;5.332;2023-07-13T14:27:17;24.60;99.90
25554;DHT22;13446;50.926;5.332;2023-07-13T14:29:43;24.70;99.80
25554;DHT22;13446;50.926;5.332;2023-07-13T14:32:10;25.00;99.50
25554;DHT22;13446;50.926;5.332;2023-07-13T14:34:35;24.80;98.70
25554;DHT22;13446;50.926;5.332;2023-07-13T14:37:01;24.80;99.40
25554;DHT22;13446;50.926;5.332;2023-07-13T14:39:32;24.60;99.90
25554;DHT22;13446;50.926;5.332;2023-07-13T14:41:57;24.50;99.80
25554;DHT22;13446;50.926;5.332;2023-07-13T14:44:27;24.60;99.80
25554;DHT22;13446;50.926;5.332;2023-07-13T14:46:54;24.60;99.90
25554;DHT22;13446;50.926;5.332;2023-07-13T14:49:25;24.90;99.30
25554;DHT22;13446;50.926;5.332;2023-07-13T14:51:51;25.30;98.50
25554;DHT22;13446;50.926;5.332;2023-07-13T14:54:17;25.20;97.80
25554;DHT22;13446;50.926;5.332;2023-07-13T14:56:43;24.80;98.70
25554;DHT22;13446;50.926;5.332;2023-07-13T14:59:08;25.50;98.50
25554;DHT22;13446;50.926;5.332;2023-07-13T15:01:40;25.70;97.10
25554;DHT22;13446;50.926;5.332;2023-07-13T15:04:06;26.20;95.60
25554;DHT22;13446;50.926;5.332;2023-07-13T15:06:50;26.10;95.10
25554;DHT22;13446;50.926;5.332;2023-07-13T15:09:17;26.10;93.60
25554;DHT22;13446;50.926;5.332;2023-07-13T15:11:44;25.60;92.90
25554;DHT22;13446;50.926;5.332;2023-07-13T15:14:09;25.40;94.00
25554;DHT22;13446;50.926;5.332;2023-07-13T15:16:35;25.80;92.60
25554;DHT22;13446;50.926;5.332;2023-07-13T15:19:00;26.00;91.60
25554;DHT22;13446;50.926;5.332;2023-07-13T15:21:28;26.40;91.80
25554;DHT22;13446;50.926;5.332;2023-07-13T15:24:00;26.50;90.90
25554;DHT22;13446;50.926;5.332;2023-07-13T15:26:28;26.80;91.20
25554;DHT22;13446;50.926;5.332;2023-07-13T15:28:55;26.80;89.80
25554;DHT22;13446;50.926;5.332;2023-07-13T15:31:25;26.60;89.60
25554;DHT22;13446;50.926;5.332;2023-07-13T15:33:51;26.90;88.50
25554;DHT22;13446;50.926;5.332;2023-07-13T15:36:17;26.90;87.30
25554;DHT22;13446;50.926;5.332;2023-07-13T15:38:43;27.00;84.20
25554;DHT22;13446;50.926;5.332;2023-07-13T15:41:31;26.90;84.40
25554;DHT22;13446;50.926;5.332;2023-07-13T15:43:56;26.90;83.70
25554;DHT22;13446;50.926;5.332;2023-07-13T15:46:26;26.60;82.30
25554;DHT22;13446;50.926;5.332;2023-07-13T15:48:52;26.60;82.90
25554;DHT22;13446;50.926;5.332;2023-07-13T15:53:44;26.40;85.40
25554;DHT22;13446;50.926;5.332;2023-07-13T15:56:17;26.30;83.50
25554;DHT22;13446;50.926;5.332;2023-07-13T15:58:43;26.30;83.20
25554;DHT22;13446;50.926;5.332;2023-07-13T16:01:10;26.20;82.30
25554;DHT22;13446;50.926;5.332;2023-07-13T16:03:35;26.20;82.50
25554;DHT22;13446;50.926;5.332;2023-07-13T16:06:01;26.30;81.50
25554;DHT22;13446;50.926;5.332;2023-07-13T16:08:30;26.20;79.60
25554;DHT22;13446;50.926;5.332;2023-07-13T16:10:56;26.20;78.60